createdAt,value
2018-12-08T00:00:22.562Z,8.76
2018-12-08T00:01:22.535Z,8.76
2018-12-08T00:02:22.542Z,8.76
2018-12-08T00:03:22.513Z,8.78
2018-12-08T00:04:22.549Z,8.76
2018-12-08T00:05:22.508Z,8.66
2018-12-08T00:06:22.482Z,8.66
2018-12-08T00:07:22.488Z,8.66
2018-12-08T00:08:22.459Z,8.64
2018-12-08T00:09:22.443Z,8.53
2018-12-08T00:10:22.452Z,8.56
2018-12-08T00:11:22.436Z,8.53
2018-12-08T00:12:22.411Z,8.49
2018-12-08T00:13:22.410Z,8.60
2018-12-08T00:14:22.409Z,8.56
2018-12-08T00:15:22.458Z,8.45
2018-12-08T00:16:22.365Z,8.33
2018-12-08T00:17:22.364Z,8.41
2018-12-08T00:18:22.365Z,8.38
2018-12-08T00:19:22.337Z,8.36
2018-12-08T00:20:22.358Z,8.34
2018-12-08T00:21:22.316Z,8.28
2018-12-08T00:22:22.306Z,8.26
2018-12-08T00:23:22.288Z,8.16
2018-12-08T00:24:22.275Z,8.18
2018-12-08T00:25:22.286Z,8.13
2018-12-08T00:26:22.277Z,8.16
2018-12-08T00:27:22.259Z,8.12
2018-12-08T00:28:22.239Z,8.10
2018-12-08T00:29:22.221Z,8.10
2018-12-08T00:30:22.211Z,8.10
2018-12-08T00:31:22.228Z,8.13
2018-12-08T00:32:22.195Z,8.03
2018-12-08T00:33:22.184Z,8.01
2018-12-08T00:34:22.199Z,7.93
2018-12-08T00:35:22.159Z,7.94
2018-12-08T00:36:22.178Z,7.88
2018-12-08T00:37:22.144Z,7.90
2018-12-08T00:38:22.122Z,7.83
2018-12-08T00:39:22.120Z,7.85
2018-12-08T00:40:22.129Z,7.88
2018-12-08T00:41:22.130Z,7.80
2018-12-08T00:42:22.100Z,7.70
2018-12-08T00:43:22.100Z,7.72
2018-12-08T00:44:22.062Z,7.83
2018-12-08T00:45:22.051Z,7.70
2018-12-08T00:46:22.060Z,7.75
2018-12-08T00:47:22.039Z,7.77
2018-12-08T00:48:22.015Z,7.73
2018-12-08T00:49:22.027Z,7.70
2018-12-08T00:50:21.985Z,7.66
2018-12-08T00:51:22.042Z,7.69
2018-12-08T00:52:22.002Z,7.57
2018-12-08T00:53:21.958Z,7.60
2018-12-08T00:54:21.958Z,7.57
2018-12-08T00:55:21.937Z,7.67
2018-12-08T00:56:21.919Z,7.57
2018-12-08T00:57:21.912Z,7.63
2018-12-08T00:58:21.926Z,7.58
2018-12-08T00:59:21.907Z,7.57
2018-12-08T01:00:21.879Z,7.60
2018-12-08T01:01:21.902Z,7.57
2018-12-08T01:02:21.863Z,7.54
2018-12-08T01:03:21.881Z,7.60
2018-12-08T01:04:21.862Z,7.56
2018-12-08T01:05:21.830Z,7.51
2018-12-08T01:06:21.820Z,7.57
2018-12-08T01:07:21.801Z,7.56
2018-12-08T01:08:21.827Z,7.60
2018-12-08T01:09:21.778Z,7.61
2018-12-08T01:10:21.772Z,7.45
2018-12-08T01:11:21.759Z,7.48
2018-12-08T01:12:21.794Z,7.45
2018-12-08T01:13:21.835Z,7.48
2018-12-08T01:14:21.724Z,7.48
2018-12-08T01:15:21.716Z,7.48
2018-12-08T01:16:21.704Z,7.45
2018-12-08T01:17:21.717Z,7.45
2018-12-08T01:18:21.691Z,7.39
2018-12-08T01:19:21.689Z,7.33
2018-12-08T01:20:21.680Z,7.29
2018-12-08T01:21:21.646Z,7.38
2018-12-08T01:22:21.637Z,7.33
2018-12-08T01:23:21.660Z,7.39
2018-12-08T01:24:21.636Z,7.35
2018-12-08T01:25:21.606Z,7.33
2018-12-08T01:26:21.611Z,7.29
2018-12-08T01:27:21.579Z,7.32
2018-12-08T01:28:21.575Z,7.23
2018-12-08T01:29:21.585Z,7.33
2018-12-08T01:30:21.546Z,7.21
2018-12-08T01:31:21.538Z,7.20
2018-12-08T01:32:21.552Z,7.20
2018-12-08T01:33:21.521Z,7.25
2018-12-08T01:34:21.567Z,7.23
2018-12-08T01:35:21.522Z,7.24
2018-12-08T01:36:21.501Z,7.23
2018-12-08T01:37:21.472Z,7.21
2018-12-08T01:38:21.475Z,7.15
2018-12-08T01:39:21.490Z,7.17
2018-12-08T01:40:21.463Z,7.20
2018-12-08T01:41:21.449Z,7.14
2018-12-08T01:42:21.419Z,7.17
2018-12-08T01:43:21.409Z,7.17
2018-12-08T01:44:21.393Z,7.13
2018-12-08T01:45:21.427Z,7.13
2018-12-08T01:46:21.378Z,7.05
2018-12-08T01:47:21.371Z,7.14
2018-12-08T01:48:21.349Z,7.17
2018-12-08T01:49:21.345Z,7.13
2018-12-08T01:50:21.359Z,7.11
2018-12-08T01:51:21.354Z,7.05
2018-12-08T01:52:21.308Z,7.03
2018-12-08T01:53:21.302Z,6.99
2018-12-08T01:54:21.287Z,6.92
2018-12-08T01:55:21.273Z,6.97
2018-12-08T01:56:21.302Z,6.99
2018-12-08T01:57:21.254Z,6.92
2018-12-08T01:58:21.242Z,6.97
2018-12-08T01:59:21.246Z,6.92
2018-12-08T02:00:21.245Z,6.85
2018-12-08T02:01:21.254Z,6.92
2018-12-08T02:02:21.198Z,6.89
2018-12-08T02:03:21.185Z,6.85
2018-12-08T02:04:21.179Z,6.87
2018-12-08T02:05:21.163Z,6.85
2018-12-08T02:06:21.180Z,6.78
2018-12-08T02:07:21.171Z,6.78
2018-12-08T02:08:21.138Z,6.75
2018-12-08T02:09:21.129Z,6.85
2018-12-08T02:10:21.127Z,6.82
2018-12-08T02:11:24.929Z,6.79
2018-12-08T02:12:21.107Z,6.79
2018-12-08T02:13:21.101Z,6.79
2018-12-08T02:14:21.079Z,6.70
2018-12-08T02:15:21.068Z,6.66
2018-12-08T02:16:21.041Z,6.74
2018-12-08T02:17:21.059Z,6.79
2018-12-08T02:18:21.039Z,6.79
2018-12-08T02:19:21.045Z,6.75
2018-12-08T02:20:20.998Z,6.70
2018-12-08T02:21:21.010Z,6.66
2018-12-08T02:22:21.021Z,6.74
2018-12-08T02:23:20.966Z,6.72
2018-12-08T02:24:20.965Z,6.69
2018-12-08T02:25:20.952Z,6.66
2018-12-08T02:26:20.932Z,6.72
2018-12-08T02:27:20.926Z,6.67
2018-12-08T02:28:20.956Z,6.79
2018-12-08T02:29:20.908Z,6.63
2018-12-08T02:30:20.894Z,6.62
2018-12-08T02:31:20.907Z,6.63
2018-12-08T02:32:20.878Z,6.72
2018-12-08T02:33:20.877Z,6.60
2018-12-08T02:34:20.850Z,6.62
2018-12-08T02:35:20.838Z,6.59
2018-12-08T02:36:20.827Z,6.60
2018-12-08T02:37:20.822Z,6.67
2018-12-08T02:38:20.846Z,6.63
2018-12-08T02:39:20.797Z,6.64
2018-12-08T02:40:20.789Z,6.63
2018-12-08T02:41:20.770Z,6.70
2018-12-08T02:42:20.763Z,6.63
2018-12-08T02:43:20.755Z,6.57
2018-12-08T02:44:20.764Z,6.52
2018-12-08T02:45:20.724Z,6.52
2018-12-08T02:46:20.754Z,6.36
2018-12-08T02:47:20.715Z,6.48
2018-12-08T02:48:20.705Z,6.41
2018-12-08T02:49:20.712Z,6.41
2018-12-08T02:50:20.678Z,6.49
2018-12-08T02:51:20.673Z,6.42
2018-12-08T02:52:20.649Z,6.36
2018-12-08T02:53:20.642Z,6.38
2018-12-08T02:54:20.653Z,6.51
2018-12-08T02:55:20.625Z,6.41
2018-12-08T02:56:20.619Z,6.44
2018-12-08T02:57:20.638Z,6.48
2018-12-08T02:58:20.591Z,6.45
2018-12-08T02:59:20.599Z,6.36
2018-12-08T03:00:20.567Z,6.42
2018-12-08T03:01:20.559Z,6.46
2018-12-08T03:02:20.548Z,6.41
2018-12-08T03:03:20.558Z,6.42
2018-12-08T03:04:20.557Z,6.41
2018-12-08T03:05:20.515Z,6.44
2018-12-08T03:06:20.543Z,6.42
2018-12-08T03:07:20.500Z,6.42
2018-12-08T03:08:20.478Z,6.38
2018-12-08T03:09:20.473Z,6.39
2018-12-08T03:10:20.502Z,6.39
2018-12-08T03:11:20.449Z,6.41
2018-12-08T03:12:20.437Z,6.45
2018-12-08T03:13:20.442Z,6.41
2018-12-08T03:14:20.537Z,6.38
2018-12-08T03:15:20.442Z,6.38
2018-12-08T03:16:20.397Z,6.38
2018-12-08T03:17:20.385Z,6.30
2018-12-08T03:18:20.366Z,6.38
2018-12-08T03:19:20.358Z,6.41
2018-12-08T03:20:20.392Z,6.28
2018-12-08T03:21:20.334Z,6.30
2018-12-08T03:22:20.325Z,6.39
2018-12-08T03:23:20.332Z,6.35
2018-12-08T03:24:20.314Z,6.38
2018-12-08T03:25:20.341Z,6.26
2018-12-08T03:26:20.289Z,6.30
2018-12-08T03:27:20.267Z,6.33
2018-12-08T03:28:20.265Z,6.35
2018-12-08T03:29:20.251Z,6.28
2018-12-08T03:30:20.244Z,6.38
2018-12-08T03:31:20.255Z,6.35
2018-12-08T03:32:20.216Z,6.27
2018-12-08T03:33:20.271Z,6.31
2018-12-08T03:34:20.195Z,6.26
2018-12-08T03:35:20.188Z,6.31
2018-12-08T03:36:20.204Z,6.35
2018-12-08T03:37:20.168Z,6.39
2018-12-08T03:38:20.170Z,6.24
2018-12-08T03:39:20.145Z,6.24
2018-12-08T03:40:20.130Z,6.30
2018-12-08T03:41:20.158Z,6.28
2018-12-08T03:42:20.112Z,6.28
2018-12-08T03:43:20.169Z,6.24
2018-12-08T03:44:20.123Z,6.26
2018-12-08T03:45:20.082Z,6.28
2018-12-08T03:46:20.081Z,6.31
2018-12-08T03:47:20.050Z,6.27
2018-12-08T03:48:20.054Z,6.22
2018-12-08T03:49:20.063Z,6.33
2018-12-08T03:50:20.021Z,6.31
2018-12-08T03:51:20.021Z,6.28
2018-12-08T03:52:20.017Z,6.28
2018-12-08T03:53:19.997Z,6.26
2018-12-08T03:54:20.015Z,6.24
2018-12-08T03:55:19.994Z,6.20
2018-12-08T03:56:19.962Z,6.27
2018-12-08T03:57:19.953Z,6.31
2018-12-08T03:58:19.935Z,6.26
2018-12-08T03:59:19.925Z,6.26
2018-12-08T04:00:19.958Z,6.27
2018-12-08T04:01:19.898Z,6.24
2018-12-08T04:02:19.894Z,6.27
2018-12-08T04:03:20.030Z,6.30
2018-12-08T04:04:19.866Z,6.19
2018-12-08T04:05:19.881Z,6.27
2018-12-08T04:06:19.858Z,6.20
2018-12-08T04:07:19.853Z,6.24
2018-12-08T04:08:19.827Z,6.26
2018-12-08T04:09:19.826Z,6.19
2018-12-08T04:10:19.835Z,6.20
2018-12-08T04:11:19.796Z,6.17
2018-12-08T04:12:19.782Z,6.16
2018-12-08T04:13:19.788Z,6.04
2018-12-08T04:14:19.762Z,6.11
2018-12-08T04:15:19.753Z,6.07
2018-12-08T04:16:19.753Z,6.01
2018-12-08T04:17:19.728Z,6.12
2018-12-08T04:18:19.720Z,6.09
2018-12-08T04:19:19.702Z,6.08
2018-12-08T04:20:19.705Z,6.20
2018-12-08T04:21:19.716Z,6.08
2018-12-08T04:22:19.681Z,6.09
2018-12-08T04:23:19.722Z,6.17
2018-12-08T04:24:19.676Z,6.07
2018-12-08T04:25:19.646Z,6.08
2018-12-08T04:26:19.668Z,6.01
2018-12-08T04:27:19.626Z,6.07
2018-12-08T04:28:19.610Z,6.17
2018-12-08T04:29:19.596Z,6.12
2018-12-08T04:30:19.609Z,6.07
2018-12-08T04:31:19.574Z,6.12
2018-12-08T04:32:19.608Z,6.09
2018-12-08T04:33:19.550Z,6.09
2018-12-08T04:34:19.538Z,6.11
2018-12-08T04:35:19.551Z,6.08
2018-12-08T04:36:19.528Z,6.12
2018-12-08T04:37:19.533Z,6.04
2018-12-08T04:38:19.511Z,6.07
2018-12-08T04:39:19.491Z,6.11
2018-12-08T04:40:19.474Z,6.14
2018-12-08T04:41:19.465Z,6.09
2018-12-08T04:42:19.486Z,6.11
2018-12-08T04:43:19.440Z,6.17
2018-12-08T04:44:19.475Z,6.09
2018-12-08T04:45:19.429Z,6.04
2018-12-08T04:46:19.415Z,6.04
2018-12-08T04:47:19.413Z,5.91
2018-12-08T04:48:19.412Z,5.98
2018-12-08T04:49:19.384Z,5.98
2018-12-08T04:50:19.467Z,6.01
2018-12-08T04:51:19.373Z,5.94
2018-12-08T04:52:19.344Z,5.99
2018-12-08T04:53:19.392Z,5.90
2018-12-08T04:54:19.351Z,6.05
2018-12-08T04:55:19.313Z,6.05
2018-12-08T04:56:19.314Z,6.07
2018-12-08T04:57:19.288Z,6.02
2018-12-08T04:58:19.316Z,6.07
2018-12-08T04:59:19.279Z,6.09
2018-12-08T05:00:19.257Z,6.04
2018-12-08T05:01:19.253Z,6.02
2018-12-08T05:02:19.246Z,6.12
2018-12-08T05:03:19.288Z,6.11
2018-12-08T05:04:19.218Z,6.12
2018-12-08T05:05:19.219Z,6.01
2018-12-08T05:06:19.189Z,6.04
2018-12-08T05:07:19.229Z,6.05
2018-12-08T05:08:19.275Z,6.08
2018-12-08T05:09:19.193Z,6.08
2018-12-08T05:10:19.176Z,5.98
2018-12-08T05:11:19.165Z,5.99
2018-12-08T05:12:19.125Z,6.05
2018-12-08T05:13:19.113Z,6.11
2018-12-08T05:14:19.132Z,6.01
2018-12-08T05:15:19.119Z,6.01
2018-12-08T05:16:19.095Z,5.93
2018-12-08T05:17:19.083Z,6.04
2018-12-08T05:18:19.063Z,6.08
2018-12-08T05:19:19.098Z,6.07
2018-12-08T05:20:19.041Z,6.11
2018-12-08T05:21:19.032Z,6.12
2018-12-08T05:22:19.032Z,6.07
2018-12-08T05:23:19.029Z,6.04
2018-12-08T05:24:18.993Z,6.11
2018-12-08T05:25:19.022Z,6.09
2018-12-08T05:26:18.987Z,6.07
2018-12-08T05:27:18.963Z,6.08
2018-12-08T05:28:18.954Z,6.16
2018-12-08T05:29:18.986Z,6.16
2018-12-08T05:30:18.950Z,6.16
2018-12-08T05:31:18.917Z,6.11
2018-12-08T05:32:18.919Z,6.20
2018-12-08T05:33:18.911Z,6.07
2018-12-08T05:34:18.890Z,6.05
2018-12-08T05:35:18.917Z,6.08
2018-12-08T05:36:18.875Z,6.11
2018-12-08T05:37:18.860Z,6.08
2018-12-08T05:38:18.853Z,6.04
2018-12-08T05:39:18.848Z,6.07
2018-12-08T05:40:18.826Z,6.02
2018-12-08T05:41:18.832Z,6.07
2018-12-08T05:42:18.799Z,6.04
2018-12-08T05:43:18.790Z,6.01
2018-12-08T05:44:18.818Z,5.97
2018-12-08T05:45:18.767Z,5.97
2018-12-08T05:46:18.783Z,5.94
2018-12-08T05:47:18.751Z,5.99
2018-12-08T05:48:18.731Z,6.01
2018-12-08T05:49:18.731Z,5.97
2018-12-08T05:50:18.711Z,5.91
2018-12-08T05:51:18.743Z,5.93
2018-12-08T05:52:18.718Z,5.93
2018-12-08T05:53:18.679Z,5.99
2018-12-08T05:54:18.680Z,5.91
2018-12-08T05:55:18.693Z,5.91
2018-12-08T05:56:18.647Z,5.94
2018-12-08T05:57:18.661Z,5.97
2018-12-08T05:58:18.635Z,5.94
2018-12-08T05:59:18.620Z,6.04
2018-12-08T06:00:18.611Z,5.99
2018-12-08T06:01:18.595Z,5.91
2018-12-08T06:02:18.621Z,5.97
2018-12-08T06:03:18.582Z,5.99
2018-12-08T06:04:18.561Z,6.07
2018-12-08T06:05:18.556Z,6.04
2018-12-08T06:06:18.556Z,5.98
2018-12-08T06:07:18.563Z,6.11
2018-12-08T06:08:18.517Z,6.05
2018-12-08T06:09:18.512Z,6.08
2018-12-08T06:10:18.491Z,5.90
2018-12-08T06:11:18.483Z,5.97
2018-12-08T06:12:18.526Z,5.97
2018-12-08T06:13:18.474Z,5.97
2018-12-08T06:14:18.450Z,5.94
2018-12-08T06:15:18.448Z,5.94
2018-12-08T06:16:18.447Z,5.90
2018-12-08T06:17:18.469Z,5.99
2018-12-08T06:18:18.436Z,5.99
2018-12-08T06:19:18.428Z,5.94
2018-12-08T06:20:18.385Z,5.99
2018-12-08T06:21:18.390Z,5.90
2018-12-08T06:22:18.378Z,5.97
2018-12-08T06:23:18.393Z,5.94
2018-12-08T06:24:18.343Z,5.98
2018-12-08T06:25:18.348Z,5.93
2018-12-08T06:26:18.355Z,5.94
2018-12-08T06:27:18.309Z,5.98
2018-12-08T06:28:18.329Z,6.01
2018-12-08T06:29:18.337Z,6.08
2018-12-08T06:30:18.308Z,6.07
2018-12-08T06:31:18.323Z,6.08
2018-12-08T06:32:18.255Z,6.04
2018-12-08T06:33:18.278Z,6.01
2018-12-08T06:34:18.254Z,6.01
2018-12-08T06:35:18.234Z,5.99
2018-12-08T06:36:18.261Z,5.91
2018-12-08T06:37:18.204Z,5.93
2018-12-08T06:38:18.230Z,6.01
2018-12-08T06:39:18.205Z,5.97
2018-12-08T06:40:18.173Z,5.94
2018-12-08T06:41:18.169Z,5.94
2018-12-08T06:42:18.148Z,5.91
2018-12-08T06:43:18.135Z,5.86
2018-12-08T06:44:18.157Z,5.97
2018-12-08T06:45:18.141Z,5.90
2018-12-08T06:46:18.099Z,5.82
2018-12-08T06:47:18.098Z,5.87
2018-12-08T06:48:18.083Z,6.01
2018-12-08T06:49:18.073Z,5.99
2018-12-08T06:50:18.088Z,5.90
2018-12-08T06:51:18.048Z,5.91
2018-12-08T06:52:18.082Z,5.93
2018-12-08T06:53:18.045Z,5.94
2018-12-08T06:54:18.012Z,5.93
2018-12-08T06:55:18.049Z,5.91
2018-12-08T06:56:17.991Z,5.94
2018-12-08T06:57:17.987Z,5.91
2018-12-08T06:58:17.976Z,5.94
2018-12-08T06:59:17.967Z,6.01
2018-12-08T07:00:17.975Z,5.98
2018-12-08T07:01:17.953Z,5.97
2018-12-08T07:02:17.952Z,5.94
2018-12-08T07:03:17.916Z,5.94
2018-12-08T07:04:17.929Z,6.01
2018-12-08T07:05:17.931Z,5.98
2018-12-08T07:06:17.887Z,5.90
2018-12-08T07:07:17.877Z,5.93
2018-12-08T07:08:17.869Z,6.02
2018-12-08T07:09:17.851Z,5.91
2018-12-08T07:10:17.849Z,5.90
2018-12-08T07:11:17.865Z,5.91
2018-12-08T07:12:17.818Z,5.99
2018-12-08T07:13:17.858Z,5.93
2018-12-08T07:14:17.829Z,5.98
2018-12-08T07:15:17.796Z,5.94
2018-12-08T07:16:17.807Z,5.94
2018-12-08T07:17:17.775Z,5.99
2018-12-08T07:18:17.763Z,5.99
2018-12-08T07:19:17.769Z,5.98
2018-12-08T07:20:17.752Z,6.01
2018-12-08T07:21:17.750Z,5.98
2018-12-08T07:22:17.758Z,6.02
2018-12-08T07:23:17.700Z,6.04
2018-12-08T07:24:17.687Z,6.07
2018-12-08T07:25:17.750Z,6.02
2018-12-08T07:26:17.682Z,6.04
2018-12-08T07:27:17.677Z,6.08
2018-12-08T07:28:17.649Z,6.05
2018-12-08T07:29:17.653Z,6.04
2018-12-08T07:30:17.627Z,6.11
2018-12-08T07:31:17.623Z,6.12
2018-12-08T07:32:17.623Z,6.22
2018-12-08T07:33:17.591Z,6.11
2018-12-08T07:34:17.583Z,6.17
2018-12-08T07:35:17.590Z,6.12
2018-12-08T07:36:17.557Z,6.19
2018-12-08T07:37:17.621Z,6.16
2018-12-08T07:38:17.533Z,6.16
2018-12-08T07:39:17.539Z,6.17
2018-12-08T07:40:17.517Z,6.16
2018-12-08T07:41:17.507Z,6.16
2018-12-08T07:42:17.520Z,6.19
2018-12-08T07:43:17.490Z,6.22
2018-12-08T07:44:17.481Z,6.22
2018-12-08T07:45:17.461Z,6.24
2018-12-08T07:46:17.451Z,6.26
2018-12-08T07:47:17.452Z,6.22
2018-12-08T07:48:17.442Z,6.17
2018-12-08T07:49:17.428Z,6.20
2018-12-08T07:50:17.406Z,6.22
2018-12-08T07:51:17.439Z,6.24
2018-12-08T07:52:17.407Z,6.35
2018-12-08T07:53:17.376Z,6.28
2018-12-08T07:54:17.368Z,6.38
2018-12-08T07:55:17.375Z,6.45
2018-12-08T07:56:17.346Z,6.42
2018-12-08T07:57:17.349Z,6.41
2018-12-08T07:58:17.320Z,6.39
2018-12-08T07:59:17.343Z,6.54
2018-12-08T08:00:17.297Z,6.52
2018-12-08T08:01:17.284Z,6.52
2018-12-08T08:02:17.274Z,6.54
2018-12-08T08:03:17.274Z,6.66
2018-12-08T08:04:17.264Z,6.66
2018-12-08T08:05:17.259Z,6.67
2018-12-08T08:06:17.302Z,6.67
2018-12-08T08:07:17.229Z,6.60
2018-12-08T08:08:17.208Z,6.70
2018-12-08T08:09:17.205Z,6.70
2018-12-08T08:10:17.208Z,6.79
2018-12-08T08:11:17.206Z,6.78
2018-12-08T08:12:17.226Z,6.82
2018-12-08T08:13:17.161Z,6.79
2018-12-08T08:14:17.160Z,6.82
2018-12-08T08:15:17.137Z,6.87
2018-12-08T08:16:17.135Z,6.88
2018-12-08T08:17:17.114Z,6.88
2018-12-08T08:18:17.134Z,6.89
2018-12-08T08:19:17.091Z,6.92
2018-12-08T08:20:17.087Z,6.96
2018-12-08T08:21:17.129Z,6.95
2018-12-08T08:22:17.069Z,6.95
2018-12-08T08:23:17.055Z,6.89
2018-12-08T08:24:17.032Z,6.88
2018-12-08T08:25:17.034Z,7.00
2018-12-08T08:26:17.042Z,7.00
2018-12-08T08:27:17.049Z,6.89
2018-12-08T08:28:16.988Z,6.84
2018-12-08T08:29:16.979Z,6.81
2018-12-08T08:30:16.975Z,6.99
2018-12-08T08:31:16.961Z,6.97
2018-12-08T08:32:16.964Z,6.87
2018-12-08T08:33:16.935Z,6.89
2018-12-08T08:34:16.939Z,6.97
2018-12-08T08:35:16.946Z,6.97
2018-12-08T08:36:16.902Z,7.03
2018-12-08T08:37:16.923Z,7.02
2018-12-08T08:38:16.886Z,7.07
2018-12-08T08:39:16.880Z,7.06
2018-12-08T08:40:16.899Z,7.02
2018-12-08T08:41:16.847Z,7.05
2018-12-08T08:42:16.901Z,7.05
2018-12-08T08:43:16.844Z,7.03
2018-12-08T08:44:16.817Z,7.03
2018-12-08T08:45:16.813Z,7.02
2018-12-08T08:46:16.813Z,7.00
2018-12-08T08:47:16.822Z,6.99
2018-12-08T08:48:16.777Z,7.05
2018-12-08T08:49:16.769Z,7.02
2018-12-08T08:50:16.799Z,7.03
2018-12-08T08:51:16.773Z,7.10
2018-12-08T08:52:16.744Z,7.17
2018-12-08T08:53:16.788Z,7.20
2018-12-08T08:54:16.709Z,7.20
2018-12-08T08:55:16.724Z,7.21
2018-12-08T08:56:16.684Z,7.23
2018-12-08T08:57:16.702Z,7.31
2018-12-08T08:58:16.696Z,7.21
2018-12-08T08:59:16.660Z,7.24
2018-12-08T09:00:16.672Z,7.29
2018-12-08T09:01:16.634Z,7.31
2018-12-08T09:02:16.621Z,7.25
2018-12-08T09:03:16.646Z,7.38
2018-12-08T09:04:16.600Z,7.36
2018-12-08T09:05:16.626Z,7.35
2018-12-08T09:06:16.582Z,7.33
2018-12-08T09:07:16.564Z,7.36
2018-12-08T09:08:16.612Z,7.39
2018-12-08T09:09:16.570Z,7.36
2018-12-08T09:10:16.532Z,7.40
2018-12-08T09:11:16.546Z,7.47
2018-12-08T09:12:16.511Z,7.45
2018-12-08T09:13:16.509Z,7.45
2018-12-08T09:14:16.522Z,7.50
2018-12-08T09:15:16.500Z,7.48
2018-12-08T09:16:16.472Z,7.51
2018-12-08T09:17:16.463Z,7.50
2018-12-08T09:18:16.443Z,7.48
2018-12-08T09:19:16.461Z,7.48
2018-12-08T09:20:16.430Z,7.48
2018-12-08T09:21:16.427Z,7.56
2018-12-08T09:22:16.401Z,7.67
2018-12-08T09:23:16.393Z,7.63
2018-12-08T09:24:16.843Z,7.58
2018-12-08T09:25:16.365Z,7.66
2018-12-08T09:26:16.361Z,7.76
2018-12-08T09:27:16.356Z,7.73
2018-12-08T09:28:16.383Z,7.80
2018-12-08T09:29:16.349Z,7.76
2018-12-08T09:30:16.345Z,7.75
2018-12-08T09:31:16.307Z,7.79
2018-12-08T09:32:16.293Z,7.77
2018-12-08T09:33:16.282Z,7.77
2018-12-08T09:34:16.271Z,7.73
2018-12-08T09:35:16.299Z,7.72
2018-12-08T09:36:16.251Z,7.72
2018-12-08T09:37:16.241Z,7.77
2018-12-08T09:38:16.227Z,7.76
2018-12-08T09:39:16.217Z,7.67
2018-12-08T09:40:16.234Z,7.72
2018-12-08T09:41:16.220Z,7.83
2018-12-08T09:42:16.178Z,7.76
2018-12-08T09:43:16.192Z,7.80
2018-12-08T09:44:16.184Z,7.82
2018-12-08T09:45:16.144Z,7.90
2018-12-08T09:46:16.163Z,7.88
2018-12-08T09:47:16.129Z,7.94
2018-12-08T09:48:16.139Z,7.95
2018-12-08T09:49:16.123Z,7.94
2018-12-08T09:50:16.096Z,7.98
2018-12-08T09:51:16.115Z,7.98
2018-12-08T09:52:16.070Z,8.06
2018-12-08T09:53:16.060Z,8.09
2018-12-08T09:54:16.070Z,8.10
2018-12-08T09:55:16.045Z,8.08
2018-12-08T09:56:16.049Z,8.12
2018-12-08T09:57:16.016Z,8.05
2018-12-08T09:58:16.036Z,8.10
2018-12-08T09:59:16.002Z,8.08
2018-12-08T10:00:15.985Z,8.10
2018-12-08T10:01:15.984Z,8.13
2018-12-08T10:02:15.988Z,8.08
2018-12-08T10:03:15.952Z,8.19
2018-12-08T10:04:15.951Z,8.15
2018-12-08T10:05:15.928Z,8.13
2018-12-08T10:06:15.977Z,8.16
2018-12-08T10:07:15.921Z,8.18
2018-12-08T10:08:15.900Z,8.13
2018-12-08T10:09:15.884Z,8.19
2018-12-08T10:10:15.879Z,8.20
2018-12-08T10:11:15.864Z,8.18
2018-12-08T10:12:15.896Z,8.13
2018-12-08T10:13:15.838Z,8.16
2018-12-08T10:14:15.836Z,8.24
2018-12-08T10:15:15.822Z,8.24
2018-12-08T10:16:15.814Z,8.28
2018-12-08T10:17:15.794Z,8.18
2018-12-08T10:18:15.799Z,8.30
2018-12-08T10:19:15.782Z,8.18
2018-12-08T10:20:15.757Z,8.31
2018-12-08T10:21:15.791Z,8.16
2018-12-08T10:22:15.782Z,8.23
2018-12-08T10:23:15.780Z,8.30
2018-12-08T10:24:15.719Z,8.30
2018-12-08T10:25:15.712Z,8.20
2018-12-08T10:26:15.698Z,8.31
2018-12-08T10:27:15.682Z,8.27
2018-12-08T10:28:15.674Z,8.31
2018-12-08T10:29:15.685Z,8.27
2018-12-08T10:30:15.659Z,8.28
2018-12-08T10:31:15.641Z,8.16
2018-12-08T10:32:15.632Z,8.23
2018-12-08T10:33:15.629Z,8.15
2018-12-08T10:34:15.617Z,8.19
2018-12-08T10:35:15.598Z,8.24
2018-12-08T10:36:15.582Z,8.16
2018-12-08T10:37:15.572Z,8.19
2018-12-08T10:38:15.577Z,8.31
2018-12-08T10:39:15.570Z,8.30
2018-12-08T10:40:15.550Z,8.19
2018-12-08T10:41:15.536Z,8.19
2018-12-08T10:42:15.517Z,8.27
2018-12-08T10:43:15.503Z,8.30
2018-12-08T10:44:15.547Z,8.28
2018-12-08T10:45:15.489Z,8.30
2018-12-08T10:46:15.468Z,8.41
2018-12-08T10:47:15.464Z,8.36
2018-12-08T10:48:15.452Z,8.41
2018-12-08T10:49:15.478Z,8.46
2018-12-08T10:50:15.424Z,8.37
2018-12-08T10:51:15.413Z,8.44
2018-12-08T10:52:15.404Z,8.51
2018-12-08T10:53:15.397Z,8.51
2018-12-08T10:54:15.418Z,8.44
2018-12-08T10:55:15.387Z,8.46
2018-12-08T10:56:15.366Z,8.46
2018-12-08T10:57:15.350Z,8.46
2018-12-08T10:58:15.374Z,8.55
2018-12-08T10:59:15.331Z,8.44
2018-12-08T11:00:15.313Z,8.46
2018-12-08T11:01:15.370Z,8.51
2018-12-08T11:02:15.304Z,8.49
2018-12-08T11:03:15.319Z,8.49
2018-12-08T11:04:15.269Z,8.52
2018-12-08T11:05:15.278Z,8.44
2018-12-08T11:06:16.972Z,8.46
2018-12-08T11:07:15.274Z,8.42
2018-12-08T11:08:15.260Z,8.48
2018-12-08T11:09:15.266Z,8.44
2018-12-08T11:10:15.213Z,8.42
2018-12-08T11:11:15.205Z,8.42
2018-12-08T11:12:15.182Z,8.41
2018-12-08T11:13:15.178Z,8.38
2018-12-08T11:14:15.198Z,8.44
2018-12-08T11:15:15.181Z,8.42
2018-12-08T11:16:15.153Z,8.42
2018-12-08T11:17:15.163Z,8.37
2018-12-08T11:18:15.119Z,8.41
2018-12-08T11:19:15.123Z,8.42
2018-12-08T11:20:15.117Z,8.46
2018-12-08T11:21:15.092Z,8.45
2018-12-08T11:22:15.082Z,8.42
2018-12-08T11:23:15.064Z,8.44
2018-12-08T11:24:15.105Z,8.45
2018-12-08T11:25:15.077Z,8.53
2018-12-08T11:26:15.036Z,8.53
2018-12-08T11:27:15.011Z,8.52
2018-12-08T11:28:15.001Z,8.70
2018-12-08T11:29:14.994Z,8.70
2018-12-08T11:30:14.988Z,8.74
2018-12-08T11:31:14.993Z,8.73
2018-12-08T11:32:14.961Z,8.79
2018-12-08T11:33:14.944Z,8.73
2018-12-08T11:34:14.946Z,8.79
2018-12-08T11:35:14.929Z,8.79
2018-12-08T11:36:14.933Z,8.78
2018-12-08T11:37:14.926Z,8.64
2018-12-08T11:38:14.908Z,8.78
2018-12-08T11:39:14.895Z,8.74
2018-12-08T11:40:14.866Z,8.66
2018-12-08T11:41:14.858Z,8.74
2018-12-08T11:42:14.860Z,8.73
2018-12-08T11:43:14.854Z,8.73
2018-12-08T11:44:14.822Z,8.74
2018-12-08T11:45:14.813Z,8.67
2018-12-08T11:46:14.807Z,8.71
2018-12-08T11:47:14.795Z,8.71
2018-12-08T11:48:14.800Z,8.81
2018-12-08T11:49:14.787Z,8.89
2018-12-08T11:50:14.805Z,8.78
2018-12-08T11:51:14.772Z,8.81
2018-12-08T11:52:14.736Z,8.82
2018-12-08T11:53:14.735Z,8.81
2018-12-08T11:54:14.711Z,8.85
2018-12-08T11:55:14.749Z,8.84
2018-12-08T11:56:14.696Z,8.81
2018-12-08T11:57:14.682Z,8.92
2018-12-08T11:58:14.665Z,8.89
2018-12-08T11:59:14.658Z,8.91
2018-12-08T12:00:14.643Z,8.95
2018-12-08T12:01:14.653Z,8.82
2018-12-08T12:02:16.672Z,8.95
2018-12-08T12:03:14.648Z,8.91
2018-12-08T12:04:14.598Z,8.87
2018-12-08T12:05:14.626Z,8.91
2018-12-08T12:06:14.584Z,8.88
2018-12-08T12:07:14.566Z,8.92
2018-12-08T12:08:14.595Z,8.82
2018-12-08T12:09:14.553Z,8.87
2018-12-08T12:10:14.567Z,8.71
2018-12-08T12:11:14.526Z,8.81
2018-12-08T12:12:14.520Z,8.74
2018-12-08T12:13:14.507Z,8.70
2018-12-08T12:14:14.488Z,8.69
2018-12-08T12:15:14.518Z,8.73
2018-12-08T12:16:14.471Z,8.73
2018-12-08T12:17:14.472Z,8.66
2018-12-08T12:18:14.471Z,8.87
2018-12-08T12:19:14.437Z,8.82
2018-12-08T12:20:14.433Z,8.87
2018-12-08T12:21:14.415Z,8.95
2018-12-08T12:22:14.413Z,9.08
2018-12-08T12:23:14.403Z,9.11
2018-12-08T12:24:14.414Z,9.13
2018-12-08T12:25:14.425Z,9.18
2018-12-08T12:26:14.375Z,9.23
2018-12-08T12:27:14.356Z,9.26
2018-12-08T12:28:14.334Z,9.31
2018-12-08T12:29:14.323Z,9.32
2018-12-08T12:30:14.343Z,9.25
2018-12-08T12:31:14.297Z,9.11
2018-12-08T12:32:14.355Z,9.04
2018-12-08T12:33:14.294Z,9.10
2018-12-08T12:34:14.276Z,9.11
2018-12-08T12:35:14.257Z,9.13
2018-12-08T12:36:14.274Z,9.10
2018-12-08T12:37:14.242Z,9.06
2018-12-08T12:38:14.222Z,9.08
2018-12-08T12:39:14.226Z,9.08
2018-12-08T12:40:14.233Z,9.08
2018-12-08T12:41:14.223Z,9.13
2018-12-08T12:42:14.179Z,9.04
2018-12-08T12:43:14.192Z,9.06
2018-12-08T12:44:14.155Z,9.00
2018-12-08T12:45:14.173Z,9.10
2018-12-08T12:46:14.210Z,9.11
2018-12-08T12:47:14.118Z,9.13
2018-12-08T12:48:14.120Z,9.11
2018-12-08T12:49:14.101Z,8.99
2018-12-08T12:50:14.115Z,9.10
2018-12-08T12:51:14.205Z,9.00
2018-12-08T12:52:14.066Z,9.00
2018-12-08T12:53:14.059Z,8.92
2018-12-08T12:54:14.044Z,8.89
2018-12-08T12:55:14.032Z,9.03
2018-12-08T12:56:14.074Z,9.04
2018-12-08T12:57:14.020Z,9.00
2018-12-08T12:58:14.004Z,9.03
2018-12-08T12:59:13.995Z,8.92
2018-12-08T13:00:13.975Z,8.95
2018-12-08T13:01:14.002Z,8.91
2018-12-08T13:02:13.979Z,8.87
2018-12-08T13:03:13.963Z,8.91
2018-12-08T13:04:13.930Z,8.81
2018-12-08T13:05:13.935Z,8.89
2018-12-08T13:06:13.917Z,8.88
2018-12-08T13:07:13.921Z,8.85
2018-12-08T13:08:13.919Z,8.81
2018-12-08T13:09:13.892Z,8.87
2018-12-08T13:10:13.866Z,8.89
2018-12-08T13:11:13.887Z,8.84
2018-12-08T13:12:13.843Z,8.85
2018-12-08T13:13:13.834Z,8.76
2018-12-08T13:14:13.853Z,8.73
2018-12-08T13:15:13.842Z,8.76
2018-12-08T13:16:13.830Z,8.70
2018-12-08T13:17:13.793Z,8.69
2018-12-08T13:18:13.787Z,8.73